createdAt,value
2019-05-19T00:04:32.426Z,99.9
2019-05-19T00:09:37.966Z,99.9
2019-05-19T00:14:42.827Z,99.9
2019-05-19T00:19:47.843Z,99.9
2019-05-19T00:24:52.827Z,99.9
2019-05-19T00:29:57.921Z,99.9
2019-05-19T00:35:03.587Z,99.9
2019-05-19T00:40:08.922Z,99.9
2019-05-19T00:45:13.992Z,99.9
2019-05-19T00:50:19.143Z,99.5
2019-05-19T00:55:22.852Z,99.9
2019-05-19T01:00:28.104Z,97.9
2019-05-19T01:05:31.589Z,96.2
2019-05-19T01:10:36.495Z,95.2
2019-05-19T01:15:40.043Z,95.2
2019-05-19T01:20:45.524Z,95.1
2019-05-19T01:25:50.534Z,95.5
2019-05-19T01:30:55.644Z,96.5
2019-05-19T01:36:00.743Z,96.5
2019-05-19T01:41:05.894Z,96.3
2019-05-19T01:46:11.022Z,96.1
2019-05-19T01:51:14.604Z,95.9
2019-05-19T01:56:19.832Z,96
2019-05-19T02:01:23.472Z,96
2019-05-19T02:06:27.011Z,96.4
2019-05-19T02:11:30.598Z,97.1
2019-05-19T02:16:35.832Z,97.4
2019-05-19T02:21:41.252Z,97.9
2019-05-19T02:26:46.608Z,98
2019-05-19T02:31:52.081Z,98
2019-05-19T02:36:55.804Z,98.2
2019-05-19T02:42:01.190Z,98.2
2019-05-19T02:47:06.192Z,98.9
2019-05-19T02:52:11.293Z,99.8
2019-05-19T02:57:16.466Z,99.5
2019-05-19T03:02:21.525Z,99
2019-05-19T03:07:26.608Z,99.5
2019-05-19T03:12:31.880Z,99.8
2019-05-19T03:17:36.831Z,99.9
2019-05-19T03:22:41.963Z,99.9
2019-05-19T03:27:47.278Z,99.9
2019-05-19T03:32:51.104Z,99.9
2019-05-19T03:37:56.006Z,99.9
2019-05-19T03:42:59.896Z,99.9
2019-05-19T03:48:04.880Z,99.9
2019-05-19T03:53:09.929Z,99.9
2019-05-19T03:58:13.616Z,99.9
2019-05-19T04:03:19.283Z,99.9
2019-05-19T04:08:24.519Z,99.9
2019-05-19T04:13:29.756Z,99.9
2019-05-19T04:18:34.601Z,99.9
2019-05-19T04:23:39.716Z,99.9
2019-05-19T04:28:45.017Z,99.9
2019-05-19T04:33:49.926Z,99.9
2019-05-19T04:38:54.820Z,99.9
2019-05-19T04:44:00.126Z,99.9
2019-05-19T04:49:05.539Z,99.9
2019-05-19T04:59:13.118Z,99.9
2019-05-19T05:04:16.952Z,99.9
2019-05-19T05:09:22.072Z,99.9
2019-05-19T05:14:27.495Z,99.9
2019-05-19T05:19:32.618Z,99.9
2019-05-19T05:24:37.862Z,99.9
2019-05-19T05:29:43.040Z,99.9
2019-05-19T05:34:48.171Z,99.9
2019-05-19T05:39:53.311Z,99.9
2019-05-19T05:44:58.514Z,99.9
2019-05-19T05:50:03.597Z,99.9
2019-05-19T05:55:08.803Z,99.9
2019-05-19T06:00:17.688Z,98.7
2019-05-19T06:05:23.361Z,97.2
2019-05-19T06:10:28.572Z,97.2
2019-05-19T06:15:33.633Z,95.7
2019-05-19T06:20:40.718Z,94.6
2019-05-19T06:30:49.412Z,93.5
2019-05-19T06:35:54.476Z,93.2
2019-05-19T06:40:54.406Z,93.2
2019-05-19T06:45:59.311Z,91.5
2019-05-19T06:51:02.812Z,91.8
2019-05-19T06:56:07.846Z,90
2019-05-19T07:01:12.811Z,88.6
2019-05-19T07:06:16.328Z,88.3
2019-05-19T07:11:19.992Z,86.6
2019-05-19T07:16:23.698Z,85.1
2019-05-19T07:21:29.321Z,80.3
2019-05-19T07:26:34.554Z,80.1
2019-05-19T07:31:39.564Z,76.2
2019-05-19T07:36:44.592Z,72.2
2019-05-19T07:41:49.496Z,72.6
2019-05-19T07:46:54.523Z,73.1
2019-05-19T07:51:59.474Z,71.6
2019-05-19T07:57:04.682Z,68.6
2019-05-19T08:02:14.508Z,67.7
2019-05-19T08:07:19.616Z,66.3
2019-05-19T08:12:24.673Z,62.9
2019-05-19T08:17:29.768Z,62
2019-05-19T08:22:34.742Z,62.1
2019-05-19T08:27:39.866Z,56.7
2019-05-19T08:32:44.801Z,59.2
2019-05-19T08:37:49.857Z,55.4
2019-05-19T08:42:54.936Z,53.5
2019-05-19T08:48:00.185Z,54.1
2019-05-19T08:53:05.794Z,55
2019-05-19T08:58:10.844Z,54.9
2019-05-19T09:03:15.795Z,54.7
2019-05-19T09:08:20.803Z,51.7
2019-05-19T09:13:25.898Z,49.7
2019-05-19T09:18:29.620Z,50.4
2019-05-19T09:23:34.552Z,51.2
2019-05-19T09:28:39.731Z,49.8
2019-05-19T09:33:44.767Z,50.6
2019-05-19T09:38:49.746Z,47.9
2019-05-19T09:43:57.708Z,44.8
2019-05-19T09:49:02.808Z,41.9
2019-05-19T09:54:07.731Z,44.2
2019-05-19T09:59:13.435Z,43.3
2019-05-19T10:04:18.242Z,43.4
2019-05-19T10:09:23.224Z,45.2
2019-05-19T10:14:28.041Z,43.2
2019-05-19T10:19:33.472Z,41.8
2019-05-19T10:24:37.298Z,46.4
2019-05-19T10:29:42.338Z,46.1
2019-05-19T10:34:47.411Z,42.9
2019-05-19T10:39:52.450Z,44.4
2019-05-19T10:44:57.370Z,43.4
2019-05-19T10:50:02.614Z,42.7
2019-05-19T10:55:09.077Z,42.6
2019-05-19T11:00:14.133Z,41.9
2019-05-19T11:05:20.392Z,42.5
2019-05-19T11:10:25.581Z,42.8
2019-05-19T11:15:30.440Z,42.2
2019-05-19T11:20:33.961Z,41
2019-05-19T11:25:53.075Z,44.6
2019-05-19T11:30:38.418Z,44.5
2019-05-19T11:35:43.214Z,41
2019-05-19T11:40:48.358Z,43
2019-05-19T11:45:53.404Z,46
2019-05-19T11:51:01.290Z,43.9
2019-05-19T11:56:13.183Z,43
2019-05-19T12:01:08.439Z,43
2019-05-19T12:06:16.393Z,45
2019-05-19T12:11:21.274Z,49.1
2019-05-19T12:16:26.185Z,48.2
2019-05-19T12:21:29.694Z,49.5
2019-05-19T12:26:37.379Z,48.1
2019-05-19T12:31:42.498Z,47.5
2019-05-19T12:36:47.477Z,50.5
2019-05-19T12:41:52.691Z,51.6
2019-05-19T12:46:57.624Z,51.9
2019-05-19T12:52:02.685Z,50.6
2019-05-19T12:57:07.706Z,50.8
2019-05-19T13:02:13.378Z,50.9
2019-05-19T13:07:18.929Z,50.7
2019-05-19T13:12:24.076Z,50.4
2019-05-19T13:17:30.172Z,52
2019-05-19T13:22:35.416Z,53.2
2019-05-19T13:27:43.180Z,51.8
2019-05-19T13:32:48.319Z,51.4
2019-05-19T13:37:53.821Z,51.4
2019-05-19T13:42:58.856Z,51.4
2019-05-19T13:48:04.416Z,51.2
2019-05-19T13:53:09.493Z,51.2
2019-05-19T13:58:17.222Z,51.1
2019-05-19T14:03:22.371Z,51
2019-05-19T14:08:29.121Z,50.1
2019-05-19T14:13:34.273Z,50.1
2019-05-19T14:18:39.251Z,50.8
2019-05-19T14:23:44.289Z,50.5
2019-05-19T14:28:49.350Z,52
2019-05-19T14:33:54.403Z,51.6
2019-05-19T14:38:59.430Z,52.6
2019-05-19T14:44:04.924Z,52.1
2019-05-19T14:49:14.715Z,51.7
2019-05-19T14:54:14.672Z,52.1
2019-05-19T14:59:19.664Z,51.9
2019-05-19T15:04:24.816Z,51.6
2019-05-19T15:09:30.024Z,52.1
2019-05-19T15:14:35.244Z,52.2
2019-05-19T15:19:40.176Z,52.3
2019-05-19T15:24:46.282Z,53.8
2019-05-19T15:29:51.327Z,53.9
2019-05-19T15:45:06.771Z,55
2019-05-19T15:50:11.838Z,56.4
2019-05-19T15:55:17.084Z,61.1
2019-05-19T16:00:21.957Z,66.8
2019-05-19T16:05:27.016Z,73.1
2019-05-19T16:10:33.680Z,76.9
2019-05-19T16:15:40.201Z,74.1
2019-05-19T16:20:45.078Z,74
2019-05-19T16:25:50.072Z,73.7
2019-05-19T16:30:55.105Z,77.3
2019-05-19T16:36:00.359Z,77
2019-05-19T16:41:05.297Z,69.5
2019-05-19T16:46:18.088Z,68.8
2019-05-19T16:51:23.578Z,72.9
2019-05-19T16:56:29.226Z,73
2019-05-19T17:01:34.761Z,74.6
2019-05-19T17:06:44.184Z,74.6
2019-05-19T17:11:52.073Z,74.6
2019-05-19T17:16:57.123Z,74.2
2019-05-19T17:22:02.235Z,75
2019-05-19T17:27:07.427Z,76.1
2019-05-19T17:32:12.356Z,77.8
2019-05-19T17:37:15.482Z,79.4
2019-05-19T17:42:20.565Z,80.3
2019-05-19T17:47:25.604Z,82.3
2019-05-19T17:52:31.655Z,85.2
2019-05-19T17:57:31.089Z,85.2
2019-05-19T18:02:36.028Z,86.6
2019-05-19T18:07:39.932Z,89.6
2019-05-19T18:12:43.518Z,90.8
2019-05-19T18:17:49.808Z,91.5
2019-05-19T18:23:00.854Z,92.1
2019-05-19T18:28:05.784Z,92.4
2019-05-19T18:33:13.701Z,92.9
2019-05-19T18:38:17.240Z,93.2
2019-05-19T18:43:23.435Z,93.2
2019-05-19T18:48:28.631Z,93.4
2019-05-19T18:53:33.707Z,94.4
2019-05-19T18:58:39.173Z,95.8
2019-05-19T19:03:44.507Z,96.8
2019-05-19T19:08:49.885Z,97.9
2019-05-19T19:13:54.856Z,98.9
2019-05-19T19:19:00.485Z,99.9
2019-05-19T19:24:05.656Z,99.9
2019-05-19T19:29:11.180Z,99.9
2019-05-19T19:34:16.082Z,99.9
2019-05-19T19:39:21.139Z,99.9
2019-05-19T19:44:26.200Z,99.9
2019-05-19T19:49:31.231Z,99.9
2019-05-19T19:54:34.939Z,99.9
2019-05-19T19:59:39.964Z,99.9
2019-05-19T20:04:45.466Z,99.9
2019-05-19T20:09:50.817Z,99.9
2019-05-19T20:14:55.906Z,99.9
2019-05-19T20:20:01.109Z,99.9
2019-05-19T20:25:01.135Z,99.9
2019-05-19T20:30:06.454Z,99.9
2019-05-19T20:35:11.650Z,99.9
2019-05-19T20:40:16.665Z,99.9
2019-05-19T20:45:21.893Z,99.9
2019-05-19T20:50:27.134Z,99.9
2019-05-19T20:55:32.184Z,99.9
2019-05-19T21:00:53.718Z,99.9
2019-05-19T21:05:38.838Z,99.9
2019-05-19T21:10:43.756Z,99.9
2019-05-19T21:15:49.002Z,99.9
2019-05-19T21:20:57.001Z,99.9
2019-05-19T21:26:02.113Z,99.9
2019-05-19T21:31:08.904Z,99.9
2019-05-19T21:36:13.896Z,99.9
2019-05-19T21:41:18.948Z,99.9
2019-05-19T21:46:23.862Z,99.9
2019-05-19T21:51:28.806Z,99.9
2019-05-19T21:56:33.907Z,99.9
2019-05-19T22:01:44.264Z,99.9
2019-05-19T22:06:39.447Z,99.9
2019-05-19T22:11:44.783Z,99.9
2019-05-19T22:16:49.952Z,99.9
2019-05-19T22:21:55.141Z,99.9
2019-05-19T22:27:00.049Z,99.9
2019-05-19T22:32:05.480Z,99.9
2019-05-19T22:37:10.365Z,99.9
2019-05-19T22:42:15.448Z,99.9
2019-05-19T22:47:20.616Z,99.9
2019-05-19T22:52:25.748Z,99.9
2019-05-19T22:57:30.637Z,99.9
2019-05-19T23:02:36.249Z,99.9
2019-05-19T23:07:40.064Z,99.9
2019-05-19T23:12:43.750Z,99.9
2019-05-19T23:17:48.963Z,99.9
2019-05-19T23:22:53.962Z,99.9
2019-05-19T23:27:59.128Z,99.9
2019-05-19T23:33:04.127Z,99.9
2019-05-19T23:38:09.184Z,99.9
2019-05-19T23:43:14.371Z,99.9
2019-05-19T23:48:18.058Z,99.9
2019-05-19T23:53:23.383Z,99.9
2019-05-19T23:58:28.298Z,99.9
